createdAt,value
2022-10-29T00:00:56.263Z,16.96
2022-10-29T00:03:27.869Z,17.04
2022-10-29T00:06:00.907Z,17.18
2022-10-29T00:08:33.050Z,17.21
2022-10-29T00:11:21.517Z,17.23
2022-10-29T00:13:54.931Z,17.26
2022-10-29T00:16:28.242Z,17.27
2022-10-29T00:18:58.601Z,17.25
2022-10-29T00:21:29.096Z,17.23
2022-10-29T00:23:59.983Z,17.16
2022-10-29T00:26:30.968Z,17.20
2022-10-29T00:29:01.459Z,17.16
2022-10-29T00:31:31.859Z,17.10
2022-10-29T00:34:02.501Z,17.00
2022-10-29T00:36:32.891Z,17.01
2022-10-29T00:39:03.282Z,17.02
2022-10-29T00:41:33.694Z,17.11
2022-10-29T00:44:22.227Z,17.00
2022-10-29T00:46:55.696Z,17.00
2022-10-29T00:49:27.495Z,16.89
2022-10-29T00:51:58.861Z,16.99
2022-10-29T00:54:31.116Z,16.79
2022-10-29T00:57:07.282Z,16.83
2022-10-29T00:59:37.951Z,16.94
2022-10-29T01:02:08.605Z,16.82
2022-10-29T01:04:40.470Z,16.84
2022-10-29T01:07:11.699Z,16.82
2022-10-29T01:09:42.538Z,16.86
2022-10-29T01:15:29.553Z,16.64
2022-10-29T01:18:02.997Z,16.54
2022-10-29T01:20:39.304Z,16.56
2022-10-29T01:23:27.120Z,16.48
2022-10-29T01:26:15.711Z,16.42
2022-10-29T01:29:00.873Z,16.38
2022-10-29T01:31:43.264Z,16.46
2022-10-29T01:34:39.303Z,16.54
2022-10-29T01:37:31.077Z,16.54
2022-10-29T01:40:27.494Z,16.36
2022-10-29T01:43:06.672Z,16.31
2022-10-29T01:45:40.279Z,16.34
2022-10-29T01:48:18.152Z,16.27
2022-10-29T01:50:51.609Z,16.43
2022-10-29T01:53:22.659Z,16.31
2022-10-29T01:55:53.047Z,16.22
2022-10-29T01:58:26.163Z,16.15
2022-10-29T02:01:05.471Z,16.18
2022-10-29T02:03:38.927Z,16.11
2022-10-29T02:06:32.014Z,16.14
2022-10-29T02:09:14.380Z,16.14
2022-10-29T02:11:53.918Z,16.15
2022-10-29T02:14:36.214Z,16.07
2022-10-29T02:17:08.277Z,16.00
2022-10-29T02:19:38.712Z,16.02
2022-10-29T02:22:09.191Z,15.99
2022-10-29T02:24:39.577Z,16.08
2022-10-29T02:27:10.056Z,16.08
2022-10-29T02:29:40.539Z,16.00
2022-10-29T02:32:11.033Z,16.08
2022-10-29T02:34:41.300Z,16.01
2022-10-29T02:37:11.702Z,16.06
2022-10-29T02:39:42.200Z,16.02
2022-10-29T02:42:12.599Z,16.04
2022-10-29T02:44:42.967Z,16.02
2022-10-29T02:47:13.311Z,16.00
2022-10-29T02:49:43.849Z,15.95
2022-10-29T02:52:14.273Z,15.92
2022-10-29T02:54:44.737Z,15.87
2022-10-29T02:57:15.238Z,15.87
2022-10-29T02:59:45.641Z,15.88
2022-10-29T03:02:16.098Z,15.86
2022-10-29T03:04:46.614Z,15.94
2022-10-29T03:07:16.993Z,15.97
2022-10-29T03:09:47.375Z,15.98
2022-10-29T03:12:17.789Z,15.88
2022-10-29T03:14:48.200Z,15.83
2022-10-29T03:17:18.533Z,15.78
2022-10-29T03:19:48.916Z,15.79
2022-10-29T03:22:19.375Z,15.71
2022-10-29T03:24:49.789Z,15.72
2022-10-29T03:27:20.214Z,15.71
2022-10-29T03:29:50.526Z,15.72
2022-10-29T03:32:20.932Z,15.65
2022-10-29T03:34:54.710Z,15.60
2022-10-29T03:37:23.304Z,15.58
2022-10-29T03:39:53.755Z,15.50
2022-10-29T03:42:24.171Z,15.49
2022-10-29T03:44:54.544Z,15.68
2022-10-29T03:47:24.935Z,15.54
2022-10-29T03:49:56.147Z,15.56
2022-10-29T03:52:26.478Z,15.72
2022-10-29T03:54:57.002Z,15.62
2022-10-29T03:57:27.341Z,15.63
2022-10-29T03:59:57.632Z,15.53
2022-10-29T04:02:28.603Z,15.64
2022-10-29T04:04:59.177Z,15.61
2022-10-29T04:07:29.510Z,15.62
2022-10-29T04:09:59.981Z,15.51
2022-10-29T04:12:30.363Z,15.58
2022-10-29T04:15:01.063Z,15.57
2022-10-29T04:17:31.454Z,15.62
2022-10-29T04:20:01.835Z,15.58
2022-10-29T04:24:12.199Z,15.60
2022-10-29T04:30:09.619Z,15.44
2022-10-29T04:32:40.075Z,15.45
2022-10-29T04:35:10.525Z,15.41
2022-10-29T04:37:40.968Z,15.41
2022-10-29T04:40:13.414Z,15.41
2022-10-29T04:42:43.780Z,15.37
2022-10-29T04:45:14.093Z,15.33
2022-10-29T04:47:44.526Z,15.30
2022-10-29T04:50:15.032Z,15.30
2022-10-29T04:52:45.468Z,15.27
2022-10-29T04:55:16.119Z,15.30
2022-10-29T04:57:50.780Z,15.27
2022-10-29T05:00:21.634Z,15.27
2022-10-29T05:02:53.725Z,15.43
2022-10-29T05:05:24.661Z,15.28
2022-10-29T05:07:59.620Z,15.31
2022-10-29T05:10:32.394Z,15.32
2022-10-29T05:13:07.099Z,15.26
2022-10-29T05:15:38.228Z,15.24
2022-10-29T05:18:09.001Z,15.21
2022-10-29T05:20:39.466Z,15.20
2022-10-29T05:23:12.412Z,15.27
2022-10-29T05:25:43.002Z,15.22
2022-10-29T05:28:17.555Z,15.21
2022-10-29T05:30:49.593Z,15.34
2022-10-29T05:33:23.253Z,15.19
2022-10-29T05:35:53.627Z,15.25
2022-10-29T05:38:23.965Z,15.14
2022-10-29T05:40:54.277Z,15.22
2022-10-29T05:43:24.576Z,15.19
2022-10-29T05:45:55.296Z,15.28
2022-10-29T05:48:25.708Z,15.23
2022-10-29T05:50:58.063Z,15.32
2022-10-29T05:53:28.468Z,15.28
2022-10-29T05:55:59.990Z,15.12
2022-10-29T05:58:30.398Z,15.08
2022-10-29T06:01:00.802Z,15.04
2022-10-29T06:03:31.268Z,14.92
2022-10-29T06:06:01.801Z,15.01
2022-10-29T06:08:32.166Z,14.96
2022-10-29T06:11:03.453Z,15.00
2022-10-29T06:13:33.989Z,14.96
2022-10-29T06:16:04.569Z,14.86
2022-10-29T06:18:34.956Z,14.84
2022-10-29T06:21:05.811Z,14.89
2022-10-29T06:23:36.200Z,14.93
2022-10-29T06:26:06.775Z,14.86
2022-10-29T06:28:37.181Z,14.87
2022-10-29T06:31:07.567Z,14.80
2022-10-29T06:33:37.919Z,14.79
2022-10-29T06:36:08.565Z,14.87
2022-10-29T06:38:39.220Z,14.81
2022-10-29T06:41:09.926Z,14.81
2022-10-29T06:43:40.332Z,14.91
2022-10-29T06:46:10.770Z,14.89
2022-10-29T06:48:41.136Z,14.92
2022-10-29T06:51:11.610Z,14.89
2022-10-29T06:53:42.050Z,14.97
2022-10-29T06:56:12.422Z,14.98
2022-10-29T06:58:42.816Z,14.98
2022-10-29T07:01:13.251Z,15.05
2022-10-29T07:03:43.598Z,15.04
2022-10-29T07:06:13.989Z,15.08
2022-10-29T07:08:44.409Z,15.16
2022-10-29T07:11:14.963Z,15.16
2022-10-29T07:13:45.423Z,15.12
2022-10-29T07:16:15.789Z,15.19
2022-10-29T07:18:46.214Z,15.28
2022-10-29T07:21:16.584Z,15.32
2022-10-29T07:23:47.043Z,15.30
2022-10-29T07:26:17.604Z,15.32
2022-10-29T07:28:48.063Z,15.40
2022-10-29T07:31:18.453Z,15.42
2022-10-29T07:33:48.862Z,15.43
2022-10-29T07:36:19.245Z,15.48
2022-10-29T07:38:49.938Z,15.51
2022-10-29T07:41:20.260Z,15.74
2022-10-29T07:43:50.747Z,15.76
2022-10-29T07:46:21.042Z,15.79
2022-10-29T07:48:51.387Z,15.84
2022-10-29T07:51:21.979Z,16.10
2022-10-29T07:53:52.388Z,16.09
2022-10-29T07:56:22.820Z,16.06
2022-10-29T07:58:53.121Z,15.92
2022-10-29T08:01:23.585Z,15.95
2022-10-29T08:03:54.125Z,16.06
2022-10-29T08:06:24.504Z,16.02
2022-10-29T08:08:55.981Z,16.15
2022-10-29T08:11:26.346Z,16.10
2022-10-29T08:13:56.778Z,16.30
2022-10-29T08:16:27.325Z,16.30
2022-10-29T08:18:57.852Z,16.36
2022-10-29T08:21:28.203Z,16.32
2022-10-29T08:23:58.603Z,16.49
2022-10-29T08:26:29.012Z,16.46
2022-10-29T08:28:59.323Z,16.44
2022-10-29T08:31:29.740Z,16.52
2022-10-29T08:34:00.128Z,16.70
2022-10-29T08:36:30.435Z,16.74
2022-10-29T08:39:00.862Z,16.92
2022-10-29T08:41:52.327Z,16.95
2022-10-29T08:44:45.338Z,17.12
2022-10-29T08:47:20.757Z,17.47
2022-10-29T08:50:02.739Z,17.53
2022-10-29T08:52:36.208Z,17.60
2022-10-29T08:55:18.819Z,17.62
2022-10-29T08:58:00.684Z,17.76
2022-10-29T09:00:38.656Z,17.65
2022-10-29T09:03:13.895Z,17.94
2022-10-29T09:05:59.799Z,18.44
2022-10-29T09:08:38.742Z,18.95
2022-10-29T09:11:30.231Z,19.38
2022-10-29T09:14:20.435Z,20.00
2022-10-29T09:16:59.671Z,20.33
2022-10-29T09:19:54.257Z,20.94
2022-10-29T09:22:38.940Z,21.63
2022-10-29T09:25:18.248Z,20.37
2022-10-29T09:28:13.012Z,20.61
2022-10-29T09:30:52.218Z,20.91
2022-10-29T09:33:24.762Z,20.81
2022-10-29T09:35:58.273Z,20.84
2022-10-29T09:38:34.548Z,21.38
2022-10-29T09:41:05.512Z,22.14
2022-10-29T09:43:47.693Z,22.31
2022-10-29T09:46:23.883Z,22.23
2022-10-29T09:48:57.439Z,21.85
2022-10-29T09:51:36.879Z,21.41
2022-10-29T09:54:07.565Z,21.01
2022-10-29T09:56:41.030Z,20.70
2022-10-29T09:59:14.490Z,20.32
2022-10-29T10:01:46.453Z,20.51
2022-10-29T10:04:31.322Z,20.09
2022-10-29T10:07:13.711Z,20.20
2022-10-29T10:09:58.344Z,20.18
2022-10-29T10:12:40.591Z,19.73
2022-10-29T10:15:22.911Z,19.72
2022-10-29T10:18:07.984Z,19.26
2022-10-29T10:20:47.125Z,19.42
2022-10-29T10:23:21.504Z,19.66
2022-10-29T10:26:00.388Z,19.84
2022-10-29T10:28:31.494Z,20.09
2022-10-29T10:31:17.872Z,20.30
2022-10-29T10:33:54.263Z,21.74
2022-10-29T10:36:30.206Z,22.72
2022-10-29T10:39:01.288Z,22.93
2022-10-29T10:41:35.079Z,22.22
2022-10-29T10:44:06.423Z,21.96
2022-10-29T10:46:40.028Z,22.05
2022-10-29T10:49:16.049Z,22.76
2022-10-29T10:51:49.283Z,22.66
2022-10-29T10:54:28.878Z,23.23
2022-10-29T10:57:04.799Z,23.07
2022-10-29T10:59:47.336Z,22.68
2022-10-29T11:02:29.828Z,21.98
2022-10-29T11:05:18.809Z,21.98
2022-10-29T11:08:07.262Z,22.08
2022-10-29T11:10:40.739Z,21.85
2022-10-29T11:13:17.322Z,22.00
2022-10-29T11:15:56.664Z,21.82
2022-10-29T11:18:35.796Z,22.02
2022-10-29T11:21:14.986Z,22.29
2022-10-29T11:24:09.694Z,23.70
2022-10-29T11:26:58.233Z,23.16
2022-10-29T11:29:34.357Z,22.78
2022-10-29T11:32:32.020Z,22.30
2022-10-29T11:35:14.544Z,21.14
2022-10-29T11:38:00.171Z,21.42
2022-10-29T11:40:46.223Z,21.60
2022-10-29T11:43:19.262Z,21.82
2022-10-29T11:46:05.007Z,21.70
2022-10-29T11:48:41.265Z,20.95
2022-10-29T11:51:23.471Z,20.95
2022-10-29T11:54:05.723Z,21.09
2022-10-29T11:56:57.326Z,21.11
2022-10-29T11:59:52.046Z,21.30
2022-10-29T12:02:57.461Z,21.50
2022-10-29T12:05:37.076Z,21.41
2022-10-29T12:08:16.722Z,21.34
2022-10-29T12:10:53.053Z,21.60
2022-10-29T12:13:26.595Z,21.70
2022-10-29T12:16:08.634Z,21.75
2022-10-29T12:18:56.897Z,21.84
2022-10-29T12:21:33.307Z,21.54
2022-10-29T12:24:35.788Z,21.55
2022-10-29T12:27:18.262Z,21.86
2022-10-29T12:30:06.392Z,22.01
2022-10-29T12:32:55.650Z,21.43
2022-10-29T12:35:44.257Z,21.25
2022-10-29T12:38:35.492Z,21.38
2022-10-29T12:41:08.886Z,21.10
2022-10-29T12:43:41.570Z,21.11
2022-10-29T12:46:40.993Z,21.18
2022-10-29T12:49:29.341Z,21.00
2022-10-29T12:52:02.821Z,21.10
2022-10-29T12:54:38.875Z,20.92
2022-10-29T12:57:18.418Z,20.98
2022-10-29T12:59:49.274Z,21.02
2022-10-29T13:02:41.084Z,21.02
2022-10-29T13:05:13.869Z,21.13
2022-10-29T13:07:49.964Z,21.20
2022-10-29T13:10:35.246Z,21.32
2022-10-29T13:13:20.945Z,21.36
2022-10-29T13:16:05.977Z,21.46
2022-10-29T13:18:42.353Z,21.82
2022-10-29T13:21:12.970Z,22.02
2022-10-29T13:23:46.376Z,21.69
2022-10-29T13:26:19.857Z,21.32
2022-10-29T13:28:52.550Z,20.77
2022-10-29T13:31:25.993Z,20.65
2022-10-29T13:33:56.451Z,20.57
2022-10-29T13:36:31.855Z,20.38
2022-10-29T13:39:08.292Z,20.43
2022-10-29T13:41:46.287Z,20.42
2022-10-29T13:44:25.312Z,20.73
2022-10-29T13:47:04.939Z,20.87
2022-10-29T13:49:45.938Z,20.88
2022-10-29T13:52:22.069Z,20.88
2022-10-29T13:55:01.337Z,20.77
2022-10-29T13:57:46.575Z,20.71
2022-10-29T14:00:20.281Z,20.47
2022-10-29T14:03:05.093Z,20.42
2022-10-29T14:05:41.135Z,20.53
2022-10-29T14:08:23.236Z,20.55
2022-10-29T14:10:57.979Z,20.30
2022-10-29T14:13:34.223Z,20.26
2022-10-29T14:16:07.669Z,20.14
2022-10-29T14:18:45.734Z,20.25
2022-10-29T14:21:24.445Z,20.11
2022-10-29T14:24:08.747Z,20.01
2022-10-29T14:26:41.912Z,19.90
2022-10-29T14:29:26.364Z,19.86
2022-10-29T14:32:19.739Z,19.84
2022-10-29T14:34:51.951Z,19.78
2022-10-29T14:37:25.407Z,19.76
2022-10-29T14:39:59.317Z,19.80
2022-10-29T14:42:47.830Z,19.66
2022-10-29T14:45:28.376Z,19.71
2022-10-29T14:48:05.305Z,19.64
2022-10-29T14:50:36.309Z,19.56
2022-10-29T14:53:09.388Z,19.54
2022-10-29T14:55:41.937Z,19.63
2022-10-29T14:58:27.079Z,19.68
2022-10-29T15:01:00.229Z,19.63
2022-10-29T15:03:35.664Z,19.54
2022-10-29T15:06:22.016Z,19.56
2022-10-29T15:09:07.411Z,19.50
2022-10-29T15:11:40.777Z,19.37
2022-10-29T15:14:37.905Z,19.39
2022-10-29T15:17:11.561Z,19.36
2022-10-29T15:19:45.665Z,19.26
2022-10-29T15:22:19.127Z,19.25
2022-10-29T15:24:51.268Z,19.14
2022-10-29T15:27:24.440Z,19.05
2022-10-29T15:29:56.227Z,19.03
2022-10-29T15:32:31.419Z,19.00
2022-10-29T15:35:01.378Z,18.93
2022-10-29T15:37:43.973Z,18.82
2022-10-29T15:40:19.170Z,18.72
2022-10-29T15:42:50.028Z,18.65
2022-10-29T15:45:28.959Z,18.64
2022-10-29T15:48:12.156Z,18.62
2022-10-29T15:50:45.491Z,18.54
2022-10-29T15:53:17.839Z,18.46
2022-10-29T15:55:51.816Z,18.38
2022-10-29T15:58:23.510Z,18.40
2022-10-29T16:00:53.887Z,18.48
2022-10-29T16:03:26.782Z,18.36
2022-10-29T16:06:03.691Z,18.48
2022-10-29T16:08:42.199Z,18.48
2022-10-29T16:11:15.245Z,18.49
2022-10-29T16:13:48.986Z,18.47
2022-10-29T16:16:20.324Z,18.58
2022-10-29T16:18:51.971Z,18.50
2022-10-29T16:21:25.522Z,18.49
2022-10-29T16:23:56.064Z,18.45
2022-10-29T16:26:27.490Z,18.48
2022-10-29T16:28:57.905Z,18.46
2022-10-29T16:31:29.944Z,18.36
2022-10-29T16:34:03.365Z,18.30
2022-10-29T16:36:33.729Z,18.25
2022-10-29T16:39:04.114Z,18.15
2022-10-29T16:41:35.560Z,18.08
2022-10-29T16:44:05.997Z,18.14
2022-10-29T16:46:36.415Z,18.11
2022-10-29T16:49:06.812Z,18.11
2022-10-29T16:51:37.208Z,18.00
2022-10-29T16:54:07.621Z,18.02
2022-10-29T16:56:37.941Z,17.96
2022-10-29T16:59:08.511Z,17.97
2022-10-29T17:01:38.908Z,17.86
2022-10-29T17:04:09.446Z,17.87
2022-10-29T17:06:39.880Z,17.96
2022-10-29T17:09:10.272Z,17.96
2022-10-29T17:11:40.782Z,17.89
2022-10-29T17:14:11.339Z,17.96
2022-10-29T17:16:41.737Z,17.94
2022-10-29T17:19:12.237Z,17.88
2022-10-29T17:21:42.901Z,17.88
2022-10-29T17:24:13.304Z,17.90
2022-10-29T17:26:43.774Z,17.89
2022-10-29T17:29:14.173Z,17.87
2022-10-29T17:31:44.658Z,17.93
2022-10-29T17:34:14.983Z,17.95
2022-10-29T17:36:45.299Z,17.83
2022-10-29T17:39:15.798Z,17.86
2022-10-29T17:41:46.132Z,17.81
2022-10-29T17:44:16.649Z,17.84
2022-10-29T17:46:47.040Z,17.83
2022-10-29T17:49:17.434Z,17.84
2022-10-29T17:51:47.893Z,17.78
2022-10-29T17:54:18.610Z,17.82
2022-10-29T17:56:49.084Z,17.81
2022-10-29T17:59:19.473Z,17.70
2022-10-29T18:01:50.338Z,17.60
2022-10-29T18:04:20.853Z,17.57
2022-10-29T18:06:51.365Z,17.40
2022-10-29T18:09:21.727Z,17.36
2022-10-29T18:11:52.082Z,17.31
2022-10-29T18:14:22.435Z,17.28
2022-10-29T18:16:52.896Z,17.21
2022-10-29T18:19:23.803Z,17.11
2022-10-29T18:21:54.261Z,17.06
2022-10-29T18:24:24.806Z,17.02
2022-10-29T18:26:55.139Z,16.92
2022-10-29T18:29:25.472Z,16.93
2022-10-29T18:31:55.951Z,16.88
2022-10-29T18:34:26.292Z,16.80
2022-10-29T18:36:56.607Z,16.80
2022-10-29T18:39:27.062Z,16.79
2022-10-29T18:41:57.436Z,16.76
2022-10-29T18:44:28.009Z,16.74
2022-10-29T18:46:58.536Z,16.70
2022-10-29T18:49:28.933Z,16.68
2022-10-29T18:51:59.321Z,16.67
2022-10-29T18:54:29.846Z,16.77
2022-10-29T18:57:00.405Z,16.72
2022-10-29T18:59:30.933Z,16.76
2022-10-29T19:02:01.441Z,16.79
2022-10-29T19:04:32.051Z,16.76
2022-10-29T19:07:02.432Z,16.81
2022-10-29T19:09:32.849Z,16.78
2022-10-29T19:12:03.240Z,16.82
2022-10-29T19:14:33.677Z,16.81
2022-10-29T19:17:04.064Z,16.82
2022-10-29T19:19:34.462Z,16.86
2022-10-29T19:22:04.774Z,16.83
2022-10-29T19:24:35.168Z,16.82
2022-10-29T19:27:05.593Z,16.80
2022-10-29T19:29:36.032Z,16.77
2022-10-29T19:32:06.612Z,16.76
2022-10-29T19:37:07.418Z,16.63
2022-10-29T19:39:37.858Z,16.58
2022-10-29T19:42:08.252Z,16.53
2022-10-29T19:44:38.671Z,16.49
2022-10-29T19:47:09.016Z,16.51
2022-10-29T19:49:39.453Z,16.47
2022-10-29T19:52:09.764Z,16.44
2022-10-29T19:54:40.180Z,16.40
2022-10-29T19:57:10.526Z,16.40
2022-10-29T19:59:40.895Z,16.36
2022-10-29T20:02:12.913Z,16.28
2022-10-29T20:04:43.426Z,16.23
2022-10-29T20:07:13.837Z,16.22
2022-10-29T20:09:44.181Z,16.20
2022-10-29T20:12:14.657Z,16.19
2022-10-29T20:14:45.110Z,16.18
2022-10-29T20:17:16.659Z,16.18
2022-10-29T20:19:47.263Z,16.13
2022-10-29T20:22:17.661Z,16.12
2022-10-29T20:24:48.078Z,16.12
2022-10-29T20:27:18.599Z,16.11
2022-10-29T20:29:50.748Z,16.13
2022-10-29T20:32:21.184Z,16.19
2022-10-29T20:34:52.522Z,16.21
2022-10-29T20:37:22.982Z,16.15
2022-10-29T20:39:53.504Z,16.19
2022-10-29T20:42:24.062Z,16.20
2022-10-29T20:44:54.467Z,16.17
2022-10-29T20:47:25.013Z,16.15
2022-10-29T20:49:55.373Z,16.14
2022-10-29T20:52:25.839Z,16.14
2022-10-29T20:54:56.217Z,16.12
2022-10-29T20:57:26.543Z,16.12
2022-10-29T20:59:58.476Z,16.13
2022-10-29T21:02:29.005Z,16.12
2022-10-29T21:04:59.657Z,16.15
2022-10-29T21:07:30.069Z,16.14
2022-10-29T21:10:00.585Z,16.08
2022-10-29T21:12:30.986Z,16.11
2022-10-29T21:15:01.492Z,16.12
2022-10-29T21:17:33.588Z,16.12
2022-10-29T21:20:04.182Z,16.09
2022-10-29T21:22:34.711Z,16.12
2022-10-29T21:25:05.477Z,16.10
2022-10-29T21:27:35.965Z,16.09
2022-10-29T21:30:07.472Z,16.08
2022-10-29T21:32:37.851Z,16.06
2022-10-29T21:35:09.406Z,16.10
2022-10-29T21:37:40.037Z,16.07
2022-10-29T21:40:11.368Z,16.10
2022-10-29T21:42:41.782Z,16.06
2022-10-29T21:45:12.285Z,16.01
2022-10-29T21:47:42.697Z,15.99
2022-10-29T21:50:13.143Z,15.95
2022-10-29T21:52:43.476Z,15.92
2022-10-29T21:55:14.039Z,15.90
2022-10-29T21:57:44.802Z,15.94
2022-10-29T22:00:16.993Z,15.86
2022-10-29T22:02:47.325Z,15.87
2022-10-29T22:05:18.011Z,15.89
2022-10-29T22:07:48.385Z,15.87
2022-10-29T22:10:19.174Z,15.87
2022-10-29T22:12:49.612Z,15.86
2022-10-29T22:15:20.037Z,15.83
2022-10-29T22:17:50.440Z,15.88
2022-10-29T22:20:20.842Z,15.86
2022-10-29T22:22:51.305Z,15.88
2022-10-29T22:25:21.888Z,15.89
2022-10-29T22:27:52.302Z,15.84
2022-10-29T22:30:22.937Z,15.85
2022-10-29T22:32:53.318Z,15.84
2022-10-29T22:35:23.818Z,15.80
2022-10-29T22:37:55.627Z,15.81
2022-10-29T22:40:26.484Z,15.79
2022-10-29T22:42:57.136Z,15.79
2022-10-29T22:45:28.058Z,15.78
2022-10-29T22:47:58.405Z,15.77
2022-10-29T22:50:28.854Z,15.75
2022-10-29T22:52:59.480Z,15.74
2022-10-29T22:55:31.434Z,15.72
2022-10-29T22:58:01.795Z,15.74
2022-10-29T23:00:32.233Z,15.72
2022-10-29T23:03:02.638Z,15.67
2022-10-29T23:05:33.160Z,15.68
2022-10-29T23:08:03.546Z,15.71
2022-10-29T23:10:34.137Z,15.67
2022-10-29T23:13:04.548Z,15.62
2022-10-29T23:15:34.946Z,15.60
2022-10-29T23:18:05.455Z,15.59
2022-10-29T23:20:35.806Z,15.56
2022-10-29T23:23:06.313Z,15.60
2022-10-29T23:25:36.784Z,15.56
2022-10-29T23:28:07.180Z,15.52
2022-10-29T23:30:37.610Z,15.54
2022-10-29T23:33:07.999Z,15.49
2022-10-29T23:35:38.399Z,15.48
2022-10-29T23:38:08.808Z,15.41
2022-10-29T23:40:39.089Z,15.40
2022-10-29T23:43:09.526Z,15.34
2022-10-29T23:45:42.080Z,15.34
2022-10-29T23:48:12.885Z,15.28
2022-10-29T23:50:43.472Z,15.28
2022-10-29T23:53:14.223Z,15.28
2022-10-29T23:55:45.461Z,15.20
2022-10-29T23:58:16.816Z,15.24
